Time;durP1;ratioP1;P1;durP2;ratioP2;P2;SDS_P1;SDS_P2;PMS_P1;PMS_P2;Temp;Humidity;BMP_temperature;BMP_pressure;BME280_temperature;BME280_humidity;BME280_pressure;Samples;Min_cycle;Max_cycle;Signal;HPM_P1;HPM_P2
2021/10/15 00:01:34;;;;;;;13.82;7.63;;;;;;;;;;4934521;29;20483;-71
2021/10/15 00:04:00;;;;;;;11.10;7.65;;;;;;;;;;4936080;29;20051;-71
2021/10/15 00:06:27;;;;;;;12.00;7.68;;;;;;;;;;4917146;29;20483;-71
2021/10/15 00:08:54;;;;;;;14.18;8.00;;;;;;;;;;4903402;29;20491;-71
2021/10/15 00:11:20;;;;;;;13.43;8.55;;;;;;;;;;4918996;29;20051;-71
2021/10/15 00:13:47;;;;;;;15.82;8.27;;;;;;;;;;4918855;29;20066;-71
2021/10/15 00:16:14;;;;;;;11.18;7.60;;;;;;;;;;4919182;29;20051;-71
2021/10/15 00:18:41;;;;;;;10.63;7.65;;;;;;;;;;4935469;29;20075;-71
2021/10/15 00:21:07;;;;;;;10.35;7.13;;;;;;;;;;4922032;29;20047;-71
2021/10/15 00:23:34;;;;;;;11.10;8.25;;;;;;;;;;4954436;28;20099;-71
2021/10/15 00:26:01;;;;;;;9.05;7.40;;;;;;;;;;4937943;29;20490;-71
2021/10/15 00:28:28;;;;;;;14.35;8.10;;;;;;;;;;4954870;29;20102;-71
2021/10/15 00:30:57;;;;;;;10.70;7.95;;;;;;;;;;4954685;29;20446;-71
2021/10/15 00:33:24;;;;;;;10.48;7.00;;;;;;;;;;4954537;29;20058;-71
2021/10/15 00:35:50;;;;;;;11.63;7.45;;;;;;;;;;4921911;29;20051;-71
2021/10/15 00:38:18;;;;;;;11.13;7.57;;;;;;;;;;4937860;29;20481;-71
2021/10/15 00:40:45;;;;;;;15.48;8.23;;;;;;;;;;4954331;29;20050;-71
2021/10/15 00:43:12;;;;;;;9.40;7.35;;;;;;;;;;4937573;29;20051;-71
2021/10/15 00:45:39;;;;;;;11.80;7.78;;;;;;;;;;4954353;29;20047;-71
2021/10/15 00:48:05;;;;;;;12.00;8.13;;;;;;;;;;4954488;29;20573;-71
2021/10/15 00:50:32;;;;;;;11.95;7.55;;;;;;;;;;4969010;28;20051;-71
2021/10/15 00:52:59;;;;;;;11.73;7.65;;;;;;;;;;4937119;29;20494;-71
2021/10/15 00:55:25;;;;;;;11.07;7.72;;;;;;;;;;4937543;29;20055;-71
2021/10/15 00:57:52;;;;;;;10.20;7.55;;;;;;;;;;4937181;29;20502;-71
2021/10/15 01:00:19;;;;;;;10.65;7.68;;;;;;;;;;4955362;23;20051;-71
2021/10/15 01:02:45;;;;;;;10.15;6.72;;;;;;;;;;4918038;29;20051;-71
2021/10/15 01:05:12;;;;;;;10.80;7.88;;;;;;;;;;4935224;29;20419;-71
2021/10/15 01:07:39;;;;;;;10.73;7.72;;;;;;;;;;4934878;29;20082;-71
2021/10/15 01:10:06;;;;;;;9.25;6.90;;;;;;;;;;4931164;29;20463;-71
2021/10/15 01:12:34;;;;;;;10.18;7.28;;;;;;;;;;4936830;29;20091;-70
2021/10/15 01:15:01;;;;;;;10.48;8.10;;;;;;;;;;4921277;29;20102;-70
2021/10/15 01:17:27;;;;;;;9.52;7.32;;;;;;;;;;4954000;29;20102;-70
2021/10/15 01:19:54;;;;;;;13.25;8.48;;;;;;;;;;4953761;29;20419;-71
2021/10/15 01:22:26;;;;;;;13.73;8.95;;;;;;;;;;4952553;29;20059;-71
2021/10/15 01:24:53;;;;;;;12.80;8.50;;;;;;;;;;4936871;29;20118;-71
2021/10/15 01:27:19;;;;;;;13.68;8.75;;;;;;;;;;4952639;29;20055;-71
2021/10/15 01:29:47;;;;;;;12.25;7.97;;;;;;;;;;4936342;29;20499;-71
2021/10/15 01:32:15;;;;;;;13.27;8.55;;;;;;;;;;4953526;29;20558;-71
2021/10/15 01:34:41;;;;;;;13.00;8.90;;;;;;;;;;4935988;29;20047;-71
2021/10/15 01:37:08;;;;;;;13.68;9.15;;;;;;;;;;4936692;29;20055;-71
2021/10/15 01:39:34;;;;;;;19.13;10.32;;;;;;;;;;4936353;29;20450;-71
2021/10/15 01:42:01;;;;;;;15.07;9.35;;;;;;;;;;4920652;29;20126;-71
2021/10/15 01:44:28;;;;;;;14.18;8.73;;;;;;;;;;4952561;29;20055;-71
2021/10/15 01:46:54;;;;;;;11.73;8.98;;;;;;;;;;4936732;29;20114;-71
2021/10/15 01:49:21;;;;;;;13.45;8.93;;;;;;;;;;4921142;29;20462;-71
2021/10/15 01:51:48;;;;;;;12.70;9.00;;;;;;;;;;4936296;29;20196;-71
2021/10/15 01:54:14;;;;;;;15.40;8.93;;;;;;;;;;4936879;29;20043;-70
2021/10/15 01:56:41;;;;;;;12.20;8.88;;;;;;;;;;4936456;29;20051;-70
2021/10/15 01:59:07;;;;;;;12.85;8.60;;;;;;;;;;4953899;29;20615;-71
2021/10/15 02:01:34;;;;;;;12.35;8.55;;;;;;;;;;4920770;29;20106;-71
2021/10/15 02:04:01;;;;;;;11.90;8.60;;;;;;;;;;4920982;29;20130;-71
2021/10/15 02:06:28;;;;;;;12.82;8.85;;;;;;;;;;4953568;29;20142;-71
2021/10/15 02:08:55;;;;;;;11.43;9.02;;;;;;;;;;4953384;29;20055;-71
2021/10/15 02:11:22;;;;;;;11.90;8.43;;;;;;;;;;4953233;29;20051;-71
2021/10/15 02:13:48;;;;;;;12.15;9.20;;;;;;;;;;4953324;29;20098;-71
2021/10/15 02:16:15;;;;;;;13.23;8.90;;;;;;;;;;4953582;29;20078;-70
2021/10/15 02:18:41;;;;;;;11.05;8.52;;;;;;;;;;4936056;29;20423;-70
2021/10/15 02:21:08;;;;;;;10.43;8.32;;;;;;;;;;4953122;29;20052;-70
2021/10/15 02:23:35;;;;;;;11.02;7.85;;;;;;;;;;4936055;29;20051;-70
2021/10/15 02:26:02;;;;;;;11.93;8.18;;;;;;;;;;4936230;29;20490;-71
2021/10/15 03:06:33;;;;;;;9.57;7.65;;;;;;;;;;4937260;29;20050;-70
2021/10/15 03:09:01;;;;;;;10.10;7.22;;;;;;;;;;4889277;29;20102;-70
2021/10/15 03:11:27;;;;;;;18.15;8.85;;;;;;;;;;4940656;23;20048;-71
2021/10/15 03:13:54;;;;;;;10.25;8.20;;;;;;;;;;4936689;29;20114;-72
2021/10/15 03:16:20;;;;;;;10.20;8.30;;;;;;;;;;4936734;29;20103;-72
2021/10/15 03:18:47;;;;;;;10.27;8.20;;;;;;;;;;4936620;29;20055;-72
2021/10/15 03:21:14;;;;;;;11.82;8.52;;;;;;;;;;4946951;29;20469;-72
2021/10/15 03:23:41;;;;;;;9.80;8.02;;;;;;;;;;4955481;29;20051;-72
2021/10/15 03:26:07;;;;;;;12.40;8.57;;;;;;;;;;4955823;29;20059;-72
2021/10/15 03:28:34;;;;;;;10.95;7.95;;;;;;;;;;4955849;29;20055;-71
2021/10/15 03:31:00;;;;;;;10.15;8.45;;;;;;;;;;4955475;29;20561;-72
2021/10/15 03:33:27;;;;;;;10.07;8.15;;;;;;;;;;4955495;29;20102;-72
2021/10/15 03:35:54;;;;;;;10.82;8.07;;;;;;;;;;4955504;29;20408;-72
2021/10/15 03:38:20;;;;;;;11.13;8.27;;;;;;;;;;4955369;29;20102;-71
2021/10/15 03:40:47;;;;;;;10.95;8.10;;;;;;;;;;4955400;29;20058;-72
2021/10/15 03:43:13;;;;;;;10.48;8.25;;;;;;;;;;4955374;29;20051;-72
2021/10/15 03:45:40;;;;;;;10.00;8.02;;;;;;;;;;4938417;29;20059;-71
2021/10/15 03:48:07;;;;;;;9.95;7.70;;;;;;;;;;4955351;29;20055;-72
2021/10/15 03:50:33;;;;;;;8.25;7.05;;;;;;;;;;4955386;29;20055;-73
2021/10/15 03:53:00;;;;;;;11.85;8.07;;;;;;;;;;4954999;29;20059;-73
2021/10/15 03:55:27;;;;;;;12.00;8.27;;;;;;;;;;4955407;29;20047;-73
2021/10/15 03:57:53;;;;;;;11.63;7.85;;;;;;;;;;4954677;28;20470;-73
2021/10/15 04:00:20;;;;;;;8.63;7.70;;;;;;;;;;4955039;29;20047;-72
2021/10/15 04:02:46;;;;;;;10.65;8.38;;;;;;;;;;4954703;29;20080;-72
2021/10/15 04:05:14;;;;;;;8.32;7.40;;;;;;;;;;4938278;29;20060;-72
2021/10/15 04:07:41;;;;;;;9.70;7.68;;;;;;;;;;4954747;29;20051;-72
2021/10/15 04:10:08;;;;;;;9.00;7.55;;;;;;;;;;4955098;28;20055;-72
2021/10/15 04:12:35;;;;;;;13.13;8.95;;;;;;;;;;4937810;29;20062;-72
2021/10/15 04:15:03;;;;;;;13.05;9.95;;;;;;;;;;4955045;29;20047;-71
2021/10/15 04:17:30;;;;;;;13.00;8.88;;;;;;;;;;4937787;29;20082;-72
2021/10/15 04:19:56;;;;;;;11.27;7.03;;;;;;;;;;4954937;29;20067;-72
2021/10/15 04:22:25;;;;;;;11.02;7.85;;;;;;;;;;4954499;29;20055;-72
2021/10/15 04:24:52;;;;;;;8.80;7.55;;;;;;;;;;4954126;29;20051;-72
2021/10/15 04:27:19;;;;;;;11.80;8.25;;;;;;;;;;4954680;29;20051;-72
2021/10/15 04:29:46;;;;;;;11.52;9.00;;;;;;;;;;4937494;29;20055;-72
2021/10/15 04:32:12;;;;;;;16.65;11.18;;;;;;;;;;4954202;29;20055;-72
2021/10/15 04:34:39;;;;;;;17.23;12.85;;;;;;;;;;4954245;29;20051;-72
2021/10/15 04:37:06;;;;;;;20.65;13.20;;;;;;;;;;4954586;29;20482;-72
2021/10/15 04:39:32;;;;;;;16.77;11.75;;;;;;;;;;4954216;29;20051;-72
2021/10/15 04:41:59;;;;;;;12.98;9.90;;;;;;;;;;4954155;29;20114;-72
2021/10/15 04:44:26;;;;;;;13.52;9.65;;;;;;;;;;4954501;29;20117;-72
2021/10/15 04:46:53;;;;;;;13.80;10.75;;;;;;;;;;4954403;29;20068;-72
2021/10/15 04:49:19;;;;;;;14.27;9.02;;;;;;;;;;4937326;29;20063;-72
2021/10/15 04:51:46;;;;;;;11.60;9.13;;;;;;;;;;4953856;29;20047;-71
2021/10/15 04:54:12;;;;;;;12.50;9.05;;;;;;;;;;4954119;29;20048;-71
2021/10/15 04:56:39;;;;;;;11.68;9.55;;;;;;;;;;4953982;29;20499;-71
2021/10/15 04:59:06;;;;;;;10.88;8.70;;;;;;;;;;4954010;29;20063;-71
2021/10/15 05:01:32;;;;;;;11.43;7.68;;;;;;;;;;4953800;29;20047;-71
2021/10/15 05:03:59;;;;;;;11.18;7.68;;;;;;;;;;4953889;29;20494;-72
2021/10/15 05:06:26;;;;;;;9.55;7.97;;;;;;;;;;4937018;29;20051;-72
2021/10/15 05:11:34;;;;;;;9.40;7.13;;;;;;;;;;4953614;29;20502;-72
2021/10/15 05:14:01;;;;;;;10.32;7.50;;;;;;;;;;4937126;29;20051;-72
2021/10/15 05:16:27;;;;;;;9.23;7.30;;;;;;;;;;4953942;29;20109;-72
2021/10/15 05:18:54;;;;;;;9.15;7.57;;;;;;;;;;4953788;29;20050;-71
2021/10/15 05:21:21;;;;;;;11.48;7.90;;;;;;;;;;4953413;29;20122;-71
2021/10/15 05:23:47;;;;;;;10.70;8.00;;;;;;;;;;4953755;29;20079;-72
2021/10/15 05:26:14;;;;;;;14.90;7.82;;;;;;;;;;4953780;29;20051;-72
2021/10/15 05:28:41;;;;;;;12.02;8.70;;;;;;;;;;4936704;29;20478;-71
2021/10/15 05:31:07;;;;;;;11.35;8.18;;;;;;;;;;4953662;29;20106;-72
2021/10/15 05:33:34;;;;;;;10.90;8.82;;;;;;;;;;4936551;29;20051;-71
2021/10/15 05:36:00;;;;;;;11.88;8.55;;;;;;;;;;4953577;29;20053;-70
2021/10/15 05:38:27;;;;;;;13.30;8.40;;;;;;;;;;4953635;29;20499;-70
2021/10/15 05:40:54;;;;;;;12.10;8.70;;;;;;;;;;4953128;29;20051;-70
2021/10/15 05:43:20;;;;;;;13.70;8.82;;;;;;;;;;4953050;29;20048;-70
2021/10/15 05:45:47;;;;;;;12.60;8.70;;;;;;;;;;4953121;29;20051;-70
2021/10/15 05:48:14;;;;;;;11.95;8.45;;;;;;;;;;4953327;29;20086;-71
2021/10/15 05:50:42;;;;;;;13.48;8.90;;;;;;;;;;4952931;29;20058;-71
2021/10/15 05:53:12;;;;;;;9.63;8.23;;;;;;;;;;4953437;29;20062;-71
2021/10/15 06:01:14;;;;;;;10.35;8.63;;;;;;;;;;4953288;29;20059;-71
2021/10/15 06:03:42;;;;;;;13.52;9.23;;;;;;;;;;4953356;29;20062;-71
2021/10/15 06:14:27;;;;;;;12.48;8.85;;;;;;;;;;4939042;29;20095;-70
2021/10/15 06:17:11;;;;;;;11.32;7.82;;;;;;;;;;4952725;29;20051;-70
2021/10/15 06:19:44;;;;;;;10.85;7.97;;;;;;;;;;4953652;28;20055;-70
2021/10/15 06:22:11;;;;;;;9.52;7.80;;;;;;;;;;4956527;29;20055;-70
2021/10/15 06:24:38;;;;;;;9.85;7.78;;;;;;;;;;4956787;29;20043;-69
2021/10/15 06:27:04;;;;;;;12.13;8.32;;;;;;;;;;4939827;29;20117;-70
2021/10/15 06:29:31;;;;;;;12.30;9.05;;;;;;;;;;4956825;29;20047;-70
2021/10/15 06:31:58;;;;;;;11.70;8.50;;;;;;;;;;4956145;29;20569;-69
2021/10/15 06:34:24;;;;;;;10.50;8.30;;;;;;;;;;4954633;29;20059;-69
2021/10/15 06:36:51;;;;;;;11.07;8.52;;;;;;;;;;4954458;29;20055;-69
2021/10/15 06:39:18;;;;;;;10.95;8.50;;;;;;;;;;4954701;29;20051;-70
2021/10/15 06:41:45;;;;;;;12.60;9.23;;;;;;;;;;4954264;29;20047;-70
2021/10/15 06:44:11;;;;;;;10.60;8.52;;;;;;;;;;4954736;29;20383;-70
2021/10/15 06:46:38;;;;;;;14.15;8.93;;;;;;;;;;4954114;29;20055;-71
2021/10/15 06:49:05;;;;;;;12.30;8.77;;;;;;;;;;4954389;29;20055;-71
2021/10/15 06:51:33;;;;;;;13.65;8.52;;;;;;;;;;4954074;29;20066;-70
2021/10/15 06:54:00;;;;;;;13.82;8.23;;;;;;;;;;4954292;29;20110;-70
2021/10/15 06:56:26;;;;;;;10.20;8.27;;;;;;;;;;4954456;29;20051;-70
2021/10/15 06:58:53;;;;;;;13.18;8.70;;;;;;;;;;4954389;29;20106;-70
2021/10/15 07:01:19;;;;;;;11.73;9.25;;;;;;;;;;4953729;29;20122;-70
2021/10/15 07:03:46;;;;;;;10.68;9.20;;;;;;;;;;4953945;29;20059;-70
2021/10/15 07:06:13;;;;;;;12.90;8.80;;;;;;;;;;4954194;29;20055;-70
2021/10/15 07:08:40;;;;;;;13.40;9.18;;;;;;;;;;4954042;29;20055;-69
2021/10/15 07:11:06;;;;;;;13.40;9.68;;;;;;;;;;4933433;29;20551;-70
2021/10/15 07:13:33;;;;;;;19.65;10.93;;;;;;;;;;4934041;29;20054;-70
2021/10/15 07:15:59;;;;;;;20.10;11.98;;;;;;;;;;4934673;29;20491;-70
2021/10/15 07:18:26;;;;;;;16.52;11.02;;;;;;;;;;4934858;29;20051;-71
2021/10/15 07:20:53;;;;;;;17.65;10.55;;;;;;;;;;4942335;29;20059;-70
2021/10/15 07:23:19;;;;;;;17.13;10.52;;;;;;;;;;4953898;29;20110;-70
2021/10/15 07:25:46;;;;;;;15.93;9.45;;;;;;;;;;4953724;29;20055;-70
2021/10/15 07:28:13;;;;;;;14.68;11.38;;;;;;;;;;4946009;28;20051;-65
2021/10/15 07:30:41;;;;;;;16.50;10.48;;;;;;;;;;4948829;29;20102;-65
2021/10/15 07:33:07;;;;;;;18.65;10.52;;;;;;;;;;4951264;29;20525;-65
2021/10/15 07:35:34;;;;;;;17.45;10.77;;;;;;;;;;4950881;29;20047;-65
2021/10/15 07:38:01;;;;;;;15.10;9.93;;;;;;;;;;4952544;29;20055;-66
2021/10/15 07:40:28;;;;;;;17.05;10.48;;;;;;;;;;4946470;29;20315;-69
2021/10/15 07:42:54;;;;;;;17.88;10.70;;;;;;;;;;4950650;28;20597;-68
2021/10/15 07:45:21;;;;;;;15.05;10.02;;;;;;;;;;4950737;29;20118;-72
2021/10/15 07:47:58;;;;;;;13.60;9.18;;;;;;;;;;4952582;29;20061;-69
2021/10/15 07:50:25;;;;;;;13.63;9.20;;;;;;;;;;4953429;29;20063;-73
2021/10/15 07:52:52;;;;;;;13.50;8.18;;;;;;;;;;4936477;29;20450;-72
2021/10/15 07:55:20;;;;;;;10.73;6.88;;;;;;;;;;4953063;29;20047;-73
2021/10/15 07:57:47;;;;;;;11.30;7.55;;;;;;;;;;4952862;29;20058;-71
2021/10/15 08:00:14;;;;;;;13.48;7.80;;;;;;;;;;4952777;29;20098;-69
2021/10/15 08:02:40;;;;;;;9.30;7.43;;;;;;;;;;4953287;29;20043;-71
2021/10/15 08:05:11;;;;;;;12.85;7.30;;;;;;;;;;4952080;29;20050;-69
2021/10/15 08:07:38;;;;;;;12.20;7.30;;;;;;;;;;4953401;29;20058;-71
2021/10/15 08:10:05;;;;;;;12.15;7.35;;;;;;;;;;4953983;28;20462;-68
2021/10/15 08:12:37;;;;;;;10.27;7.60;;;;;;;;;;4953430;29;20051;-69
2021/10/15 08:15:06;;;;;;;12.10;7.47;;;;;;;;;;4950382;29;20055;-69
2021/10/15 08:17:33;;;;;;;11.57;7.72;;;;;;;;;;4952649;29;20047;-72
2021/10/15 08:19:59;;;;;;;13.20;6.95;;;;;;;;;;4953050;29;20059;-73
2021/10/15 08:22:26;;;;;;;12.95;7.75;;;;;;;;;;4953045;29;20051;-73
2021/10/15 08:25:02;;;;;;;10.90;6.85;;;;;;;;;;4953015;29;20100;-73
2021/10/15 08:27:29;;;;;;;9.68;6.63;;;;;;;;;;4936288;29;20050;-73
2021/10/15 08:29:56;;;;;;;9.48;6.75;;;;;;;;;;4926616;29;20047;-73
2021/10/15 08:32:22;;;;;;;9.43;6.32;;;;;;;;;;4953132;29;20058;-73
2021/10/15 08:34:49;;;;;;;9.98;7.30;;;;;;;;;;4953167;29;20114;-72
2021/10/15 08:37:16;;;;;;;7.88;6.15;;;;;;;;;;4936319;29;20051;-73
2021/10/15 08:39:42;;;;;;;9.30;6.70;;;;;;;;;;4953244;29;20419;-73
2021/10/15 08:42:09;;;;;;;9.20;6.88;;;;;;;;;;4952777;29;20495;-73
2021/10/15 08:44:38;;;;;;;8.13;5.32;;;;;;;;;;4936127;29;20087;-74
2021/10/15 08:47:05;;;;;;;8.93;5.43;;;;;;;;;;4953064;29;20079;-73
2021/10/15 08:49:51;;;;;;;7.63;4.82;;;;;;;;;;4952680;29;20132;-74
2021/10/15 08:52:18;;;;;;;6.95;5.13;;;;;;;;;;4952707;29;20047;-72
2021/10/15 08:54:45;;;;;;;8.38;4.93;;;;;;;;;;4952719;29;20051;-72
2021/10/15 08:57:15;;;;;;;6.03;4.75;;;;;;;;;;4952100;29;20055;-73
2021/10/15 08:59:45;;;;;;;6.57;4.53;;;;;;;;;;4952798;29;20141;-73
2021/10/15 09:02:20;;;;;;;8.10;4.78;;;;;;;;;;4950686;29;20047;-74
2021/10/15 09:04:54;;;;;;;6.38;4.88;;;;;;;;;;4935628;29;20055;-72
2021/10/15 09:07:22;;;;;;;11.00;4.93;;;;;;;;;;4950276;29;20125;-72
2021/10/15 09:09:51;;;;;;;7.75;5.22;;;;;;;;;;4952778;29;20055;-74
2021/10/15 09:12:18;;;;;;;8.48;4.60;;;;;;;;;;4950062;23;20627;-67
2021/10/15 09:14:46;;;;;;;8.88;5.22;;;;;;;;;;4945491;29;20051;-67
2021/10/15 09:17:25;;;;;;;6.25;4.13;;;;;;;;;;4946226;29;20062;-67
2021/10/15 09:19:53;;;;;;;6.07;4.35;;;;;;;;;;4943947;29;20098;-68
2021/10/15 09:22:26;;;;;;;9.10;4.78;;;;;;;;;;4946918;29;20065;-67
2021/10/15 09:25:11;;;;;;;6.38;4.68;;;;;;;;;;4939455;29;20119;-67
2021/10/15 09:27:39;;;;;;;6.50;4.20;;;;;;;;;;4936569;29;20062;-67
2021/10/15 09:30:11;;;;;;;8.77;4.40;;;;;;;;;;4940406;29;20050;-67
2021/10/15 09:32:41;;;;;;;5.63;4.40;;;;;;;;;;4938959;29;20051;-68
2021/10/15 09:35:09;;;;;;;7.60;3.78;;;;;;;;;;4940396;29;20055;-67
2021/10/15 09:37:38;;;;;;;7.38;4.28;;;;;;;;;;4943741;29;20047;-67
2021/10/15 09:40:05;;;;;;;6.88;4.05;;;;;;;;;;4939061;29;20047;-68
2021/10/15 09:42:33;;;;;;;6.32;4.10;;;;;;;;;;4940804;29;20507;-68
2021/10/15 09:45:12;;;;;;;14.05;4.97;;;;;;;;;;4935855;29;20047;-67
2021/10/15 09:47:39;;;;;;;7.90;3.88;;;;;;;;;;4942158;29;20403;-67
2021/10/15 09:50:07;;;;;;;4.88;3.70;;;;;;;;;;4939767;29;20422;-67
2021/10/15 09:52:49;;;;;;;5.68;3.60;;;;;;;;;;4939757;29;20062;-67
2021/10/15 09:55:21;;;;;;;5.03;3.78;;;;;;;;;;4941840;29;20051;-67
2021/10/15 09:57:50;;;;;;;4.93;3.47;;;;;;;;;;4939895;29;20546;-68
2021/10/15 10:00:21;;;;;;;7.82;3.97;;;;;;;;;;4937099;29;20051;-67
2021/10/15 10:02:48;;;;;;;5.60;3.88;;;;;;;;;;4937721;29;20502;-67
2021/10/15 10:05:17;;;;;;;5.32;4.07;;;;;;;;;;4938096;29;20079;-68
2021/10/15 10:07:48;;;;;;;4.22;3.75;;;;;;;;;;4937985;29;20103;-68
2021/10/15 10:10:20;;;;;;;6.00;4.32;;;;;;;;;;4937867;29;20403;-68
2021/10/15 10:12:47;;;;;;;5.97;4.47;;;;;;;;;;4937609;29;20055;-68
2021/10/15 10:15:17;;;;;;;4.72;4.05;;;;;;;;;;4937741;29;20055;-68
2021/10/15 10:17:57;;;;;;;5.78;4.10;;;;;;;;;;4937559;29;20114;-67
2021/10/15 10:20:29;;;;;;;5.82;4.20;;;;;;;;;;4936030;29;20110;-68
2021/10/15 10:23:05;;;;;;;5.75;4.22;;;;;;;;;;4920009;29;20063;-68
2021/10/15 10:25:33;;;;;;;8.20;3.83;;;;;;;;;;4934802;29;20542;-68
2021/10/15 10:28:16;;;;;;;7.50;3.95;;;;;;;;;;4936911;29;20063;-69
2021/10/15 10:30:45;;;;;;;6.45;3.95;;;;;;;;;;4932705;29;20084;-68
2021/10/15 10:33:12;;;;;;;5.57;3.78;;;;;;;;;;4936608;29;20080;-68
2021/10/15 10:35:40;;;;;;;6.18;4.13;;;;;;;;;;4934550;29;20060;-68
2021/10/15 10:38:18;;;;;;;5.88;4.28;;;;;;;;;;4935493;29;20095;-68
2021/10/15 10:41:00;;;;;;;7.70;4.40;;;;;;;;;;4934966;29;20415;-68
2021/10/15 10:43:27;;;;;;;7.72;4.30;;;;;;;;;;4934914;29;20563;-68
2021/10/15 10:46:09;;;;;;;5.30;4.25;;;;;;;;;;4933936;29;20111;-68
2021/10/15 10:48:53;;;;;;;6.97;4.93;;;;;;;;;;4934526;29;20055;-68
2021/10/15 10:51:22;;;;;;;5.55;4.47;;;;;;;;;;4934941;29;20060;-68
2021/10/15 10:53:57;;;;;;;4.97;3.80;;;;;;;;;;4934943;29;20052;-68
2021/10/15 10:56:39;;;;;;;6.00;4.82;;;;;;;;;;4935058;29;20059;-69
2021/10/15 10:59:18;;;;;;;5.95;4.32;;;;;;;;;;4935232;29;20061;-68
2021/10/15 11:02:02;;;;;;;8.57;5.30;;;;;;;;;;4934182;29;20051;-68
2021/10/15 11:04:42;;;;;;;6.57;4.00;;;;;;;;;;4935302;29;20114;-69
2021/10/15 11:07:28;;;;;;;5.82;3.92;;;;;;;;;;4934051;29;20060;-68
2021/10/15 11:09:55;;;;;;;4.07;3.65;;;;;;;;;;4935008;29;20056;-68
2021/10/15 11:12:42;;;;;;;4.05;3.30;;;;;;;;;;4934869;29;20051;-68
2021/10/15 11:15:12;;;;;;;6.10;3.10;;;;;;;;;;4934306;29;20518;-68
2021/10/15 11:17:41;;;;;;;5.88;3.05;;;;;;;;;;4934525;29;20087;-70
2021/10/15 11:20:35;;;;;;;5.78;2.72;;;;;;;;;;4926936;29;20047;-79
2021/10/15 11:26:47;;;;;;;3.70;2.70;;;;;;;;;;4870368;29;20068;-72
2021/10/15 11:29:14;;;;;;;3.63;2.65;;;;;;;;;;4869810;29;20053;-73
2021/10/15 11:31:52;;;;;;;4.78;2.78;;;;;;;;;;4898307;29;20104;-75
2021/10/15 11:34:19;;;;;;;3.95;2.92;;;;;;;;;;4928389;29;20083;-74
2021/10/15 11:36:45;;;;;;;3.83;3.00;;;;;;;;;;4943922;29;20062;-73
2021/10/15 11:39:12;;;;;;;3.97;3.15;;;;;;;;;;4923094;29;20056;-75
2021/10/15 11:41:49;;;;;;;5.70;2.97;;;;;;;;;;4945395;29;20070;-73
2021/10/15 11:44:31;;;;;;;5.43;2.50;;;;;;;;;;4925667;29;20044;-74
2021/10/15 11:46:58;;;;;;;7.00;2.92;;;;;;;;;;4902820;29;20396;-70
2021/10/15 11:49:24;;;;;;;5.22;3.05;;;;;;;;;;4913611;29;20047;-71
2021/10/15 11:51:57;;;;;;;4.63;3.15;;;;;;;;;;4933218;29;20056;-70
2021/10/15 11:54:24;;;;;;;4.32;2.40;;;;;;;;;;4943182;29;20458;-71
2021/10/15 11:56:51;;;;;;;5.15;3.05;;;;;;;;;;4940982;29;20047;-71
2021/10/15 11:59:17;;;;;;;7.47;2.63;;;;;;;;;;4944020;29;20498;-71
2021/10/15 12:01:44;;;;;;;4.28;3.35;;;;;;;;;;4909363;29;20077;-71
2021/10/15 12:04:12;;;;;;;4.63;2.75;;;;;;;;;;4943028;29;20048;-71
2021/10/15 12:06:38;;;;;;;2.97;2.45;;;;;;;;;;4944089;29;20082;-71
2021/10/15 12:09:11;;;;;;;6.25;3.30;;;;;;;;;;4944332;29;20059;-71
2021/10/15 12:11:41;;;;;;;6.78;3.35;;;;;;;;;;4942363;28;20055;-70
2021/10/15 12:14:14;;;;;;;3.75;2.78;;;;;;;;;;4939416;29;20058;-71
2021/10/15 12:16:40;;;;;;;;;;;;;;;;;;4946406;29;20050;-71
2021/10/15 12:19:28;;;;;;;4.43;2.70;;;;;;;;;;4941352;28;19926;-71
2021/10/15 12:21:55;;;;;;;5.18;2.25;;;;;;;;;;4925660;29;20467;-71
2021/10/15 12:24:27;;;;;;;5.20;2.75;;;;;;;;;;4941725;29;20426;-70
2021/10/15 12:27:20;;;;;;;4.65;2.53;;;;;;;;;;4942357;29;20078;-71
2021/10/15 12:29:49;;;;;;;3.65;2.78;;;;;;;;;;4942549;29;20054;-71
2021/10/15 12:32:21;;;;;;;4.03;2.63;;;;;;;;;;4942153;29;20047;-71
2021/10/15 12:34:57;;;;;;;3.17;2.72;;;;;;;;;;4941631;29;20118;-71
2021/10/15 12:37:31;;;;;;;3.30;2.65;;;;;;;;;;4942973;29;20455;-71
2021/10/15 12:40:13;;;;;;;2.92;2.50;;;;;;;;;;4943236;29;20051;-71
2021/10/15 12:42:41;;;;;;;3.10;2.23;;;;;;;;;;4941933;29;20466;-71
2021/10/15 12:45:10;;;;;;;3.13;2.35;;;;;;;;;;4940493;29;20056;-71
2021/10/15 12:47:37;;;;;;;3.03;2.53;;;;;;;;;;4941316;29;20462;-71
2021/10/15 12:50:06;;;;;;;2.80;2.28;;;;;;;;;;4941988;29;20102;-71
2021/10/15 12:52:40;;;;;;;4.45;2.53;;;;;;;;;;4941291;29;20099;-71
2021/10/15 12:55:13;;;;;;;2.75;1.90;;;;;;;;;;4942929;29;20047;-71
2021/10/15 12:57:40;;;;;;;2.45;2.13;;;;;;;;;;4940616;29;20078;-71
2021/10/15 13:00:08;;;;;;;3.28;2.60;;;;;;;;;;4942190;29;20055;-71
2021/10/15 13:02:34;;;;;;;2.90;2.60;;;;;;;;;;4942406;29;20073;-71
2021/10/15 13:05:03;;;;;;;4.50;2.53;;;;;;;;;;4941489;29;20059;-71
2021/10/15 13:07:30;;;;;;;4.50;2.28;;;;;;;;;;4941582;29;20047;-71
2021/10/15 13:09:57;;;;;;;3.67;2.45;;;;;;;;;;4940774;29;20078;-71
2021/10/15 13:12:25;;;;;;;3.25;2.08;;;;;;;;;;4940040;29;20052;-71
2021/10/15 13:14:51;;;;;;;3.28;1.88;;;;;;;;;;4923179;29;20106;-71
2021/10/15 13:17:19;;;;;;;1.95;1.80;;;;;;;;;;4945176;29;20500;-71
2021/10/15 13:19:46;;;;;;;3.53;2.50;;;;;;;;;;4939133;29;20095;-71
2021/10/15 13:22:13;;;;;;;3.10;2.05;;;;;;;;;;4941106;29;20043;-71
2021/10/15 13:24:40;;;;;;;5.18;2.30;;;;;;;;;;4918705;29;20514;-71
2021/10/15 13:27:06;;;;;;;4.05;2.40;;;;;;;;;;4936342;29;20200;-71
2021/10/15 13:29:33;;;;;;;3.78;2.10;;;;;;;;;;4926313;29;20055;-70
2021/10/15 13:32:00;;;;;;;4.82;2.30;;;;;;;;;;4933194;29;20099;-69
2021/10/15 13:34:27;;;;;;;3.30;2.72;;;;;;;;;;4924096;29;20051;-70
2021/10/15 13:36:53;;;;;;;3.42;2.20;;;;;;;;;;4940606;29;20502;-69
2021/10/15 13:39:24;;;;;;;3.65;2.25;;;;;;;;;;4941465;29;20055;-75
2021/10/15 13:47:32;;;;;;;6.07;2.78;;;;;;;;;;4942737;29;20059;-72
2021/10/15 13:49:58;;;;;;;5.05;3.00;;;;;;;;;;4940819;29;20114;-72
2021/10/15 13:52:27;;;;;;;4.32;2.45;;;;;;;;;;4942017;29;20054;-72
2021/10/15 13:54:53;;;;;;;2.65;2.35;;;;;;;;;;4939870;29;20055;-70
2021/10/15 13:57:22;;;;;;;4.45;2.63;;;;;;;;;;4939394;29;20056;-68
2021/10/15 14:02:18;;;;;;;3.58;2.40;;;;;;;;;;4940224;29;20054;-68
2021/10/15 14:04:46;;;;;;;2.75;2.33;;;;;;;;;;4939067;29;20392;-69
2021/10/15 14:07:15;;;;;;;3.80;2.60;;;;;;;;;;4940806;29;20096;-68
2021/10/15 14:09:41;;;;;;;6.10;2.72;;;;;;;;;;4935568;29;20047;-68
2021/10/15 14:12:10;;;;;;;4.35;2.47;;;;;;;;;;4940402;29;20051;-68
2021/10/15 14:14:38;;;;;;;3.63;2.40;;;;;;;;;;4940340;29;20062;-68
2021/10/15 14:17:06;;;;;;;5.45;2.63;;;;;;;;;;4942989;29;20039;-68
2021/10/15 14:19:32;;;;;;;3.40;2.72;;;;;;;;;;4938952;29;20052;-68
2021/10/15 14:21:59;;;;;;;6.05;3.10;;;;;;;;;;4939912;29;20129;-68
2021/10/15 14:24:26;;;;;;;5.32;2.50;;;;;;;;;;4938437;29;20070;-68
2021/10/15 14:26:53;;;;;;;4.63;2.88;;;;;;;;;;4939702;29;20050;-69
2021/10/15 14:29:19;;;;;;;4.05;2.60;;;;;;;;;;4939637;29;20058;-69
2021/10/15 14:31:46;;;;;;;6.10;2.78;;;;;;;;;;4938963;29;20051;-68
2021/10/15 14:34:13;;;;;;;3.90;2.78;;;;;;;;;;4943777;29;20111;-69
2021/10/15 14:36:40;;;;;;;3.63;2.20;;;;;;;;;;4938447;29;20048;-68
2021/10/15 14:39:07;;;;;;;3.53;2.60;;;;;;;;;;4940710;29;20048;-69
2021/10/15 14:41:35;;;;;;;3.80;2.70;;;;;;;;;;4936691;29;20412;-69
2021/10/15 14:44:04;;;;;;;5.93;2.92;;;;;;;;;;4942888;29;20047;-69
2021/10/15 14:46:31;;;;;;;3.97;2.67;;;;;;;;;;4944764;29;20051;-69
2021/10/15 14:48:57;;;;;;;8.70;2.78;;;;;;;;;;4944027;29;20062;-68
2021/10/15 14:51:24;;;;;;;3.10;2.30;;;;;;;;;;4942660;29;20052;-68
2021/10/15 14:53:51;;;;;;;3.17;1.92;;;;;;;;;;4945164;29;20470;-68
2021/10/15 14:56:18;;;;;;;2.40;2.20;;;;;;;;;;4944398;29;20102;-69
2021/10/15 14:58:45;;;;;;;5.20;1.70;;;;;;;;;;4946784;29;20212;-68
2021/10/15 15:01:11;;;;;;;2.38;2.10;;;;;;;;;;4942644;29;20425;-69
2021/10/15 15:03:39;;;;;;;3.28;2.20;;;;;;;;;;4942852;29;20047;-68
2021/10/15 15:06:06;;;;;;;4.93;2.78;;;;;;;;;;4945376;29;20055;-71
2021/10/15 15:08:33;;;;;;;3.45;2.35;;;;;;;;;;4939342;29;20123;-71
2021/10/15 15:11:00;;;;;;;2.60;2.17;;;;;;;;;;4936430;29;20494;-70
2021/10/15 15:13:26;;;;;;;3.30;2.47;;;;;;;;;;4961257;23;20047;-70
2021/10/15 15:15:54;;;;;;;4.95;2.38;;;;;;;;;;4935649;29;20565;-70
2021/10/15 15:18:25;;;;;;;4.13;2.25;;;;;;;;;;4936028;29;20570;-71
2021/10/15 15:20:59;;;;;;;5.45;2.90;;;;;;;;;;4935155;29;20098;-71
2021/10/15 15:23:28;;;;;;;3.30;2.33;;;;;;;;;;4946075;29;20055;-69
2021/10/15 15:25:54;;;;;;;5.38;2.65;;;;;;;;;;4953910;29;20074;-75
2021/10/15 15:28:21;;;;;;;3.13;2.20;;;;;;;;;;4954612;29;20182;-75
2021/10/15 15:30:48;;;;;;;3.35;2.33;;;;;;;;;;4936708;29;20055;-73
2021/10/15 15:33:15;;;;;;;5.07;2.20;;;;;;;;;;4936422;29;20048;-72
2021/10/15 15:35:43;;;;;;;3.38;2.72;;;;;;;;;;4950349;29;20062;-68
2021/10/15 15:38:10;;;;;;;4.40;2.45;;;;;;;;;;4932096;29;20082;-73
2021/10/15 15:40:37;;;;;;;5.32;2.60;;;;;;;;;;4953269;29;20206;-72
2021/10/15 15:43:05;;;;;;;3.30;2.10;;;;;;;;;;4935197;29;20051;-72
2021/10/15 15:45:36;;;;;;;2.35;2.10;;;;;;;;;;4951380;28;20106;-73
2021/10/15 15:48:08;;;;;;;3.00;2.50;;;;;;;;;;4931214;29;20134;-70
2021/10/15 15:50:39;;;;;;;3.58;2.50;;;;;;;;;;4953202;29;20514;-69